sensor_id;sensor_type;location;lat;lon;timestamp;P1;durP1;ratioP1;P2;durP2;ratioP2
51146;SDS011;37207;53.060;18.726;2023-07-09T00:00:15;3.40;;;2.70;;
51146;SDS011;37207;53.060;18.726;2023-07-09T00:03:02;5.30;;;2.90;;
51146;SDS011;37207;53.060;18.726;2023-07-09T00:05:29;3.40;;;2.60;;
51146;SDS011;37207;53.060;18.726;2023-07-09T00:07:55;4.10;;;3.20;;
51146;SDS011;37207;53.060;18.726;2023-07-09T00:10:22;3.90;;;2.60;;
51146;SDS011;37207;53.060;18.726;2023-07-09T00:12:49;4.40;;;2.30;;
51146;SDS011;37207;53.060;18.726;2023-07-09T00:15:16;4.00;;;3.10;;
51146;SDS011;37207;53.060;18.726;2023-07-09T00:17:44;3.60;;;3.30;;
51146;SDS011;37207;53.060;18.726;2023-07-09T00:20:12;4.30;;;3.00;;
51146;SDS011;37207;53.060;18.726;2023-07-09T00:22:41;3.40;;;3.10;;
51146;SDS011;37207;53.060;18.726;2023-07-09T00:25:10;4.30;;;3.30;;
51146;SDS011;37207;53.060;18.726;2023-07-09T00:27:40;3.40;;;3.10;;
51146;SDS011;37207;53.060;18.726;2023-07-09T00:30:13;4.00;;;3.60;;
51146;SDS011;37207;53.060;18.726;2023-07-09T00:32:42;3.40;;;2.90;;
51146;SDS011;37207;53.060;18.726;2023-07-09T00:35:10;2.80;;;2.60;;
51146;SDS011;37207;53.060;18.726;2023-07-09T00:37:38;3.00;;;2.70;;
51146;SDS011;37207;53.060;18.726;2023-07-09T00:40:08;7.40;;;3.40;;
51146;SDS011;37207;53.060;18.726;2023-07-09T00:42:42;9.80;;;3.10;;
51146;SDS011;37207;53.060;18.726;2023-07-09T00:45:21;5.50;;;3.00;;
51146;SDS011;37207;53.060;18.726;2023-07-09T00:47:54;4.60;;;3.20;;
51146;SDS011;37207;53.060;18.726;2023-07-09T00:53:15;3.00;;;2.50;;
51146;SDS011;37207;53.060;18.726;2023-07-09T00:55:49;2.60;;;2.40;;
51146;SDS011;37207;53.060;18.726;2023-07-09T00:58:22;2.70;;;2.40;;
51146;SDS011;37207;53.060;18.726;2023-07-09T01:00:54;3.20;;;2.40;;
51146;SDS011;37207;53.060;18.726;2023-07-09T01:03:28;5.80;;;2.60;;
51146;SDS011;37207;53.060;18.726;2023-07-09T01:06:00;2.40;;;2.20;;
51146;SDS011;37207;53.060;18.726;2023-07-09T01:08:31;4.10;;;2.40;;
51146;SDS011;37207;53.060;18.726;2023-07-09T01:10:59;4.50;;;2.10;;
51146;SDS011;37207;53.060;18.726;2023-07-09T01:13:26;3.30;;;2.40;;
51146;SDS011;37207;53.060;18.726;2023-07-09T01:15:55;4.20;;;2.80;;
51146;SDS011;37207;53.060;18.726;2023-07-09T01:18:23;7.30;;;3.10;;
51146;SDS011;37207;53.060;18.726;2023-07-09T01:20:51;30.20;;;3.20;;
51146;SDS011;37207;53.060;18.726;2023-07-09T01:23:27;5.00;;;2.80;;
51146;SDS011;37207;53.060;18.726;2023-07-09T01:25:53;4.90;;;2.90;;
51146;SDS011;37207;53.060;18.726;2023-07-09T01:28:20;4.20;;;2.70;;
51146;SDS011;37207;53.060;18.726;2023-07-09T01:30:47;3.30;;;3.10;;
51146;SDS011;37207;53.060;18.726;2023-07-09T01:33:21;4.80;;;4.30;;
51146;SDS011;37207;53.060;18.726;2023-07-09T01:35:49;4.60;;;4.20;;
51146;SDS011;37207;53.060;18.726;2023-07-09T01:38:16;6.80;;;4.00;;
51146;SDS011;37207;53.060;18.726;2023-07-09T01:40:42;11.80;;;4.70;;
51146;SDS011;37207;53.060;18.726;2023-07-09T01:43:12;5.90;;;3.90;;
51146;SDS011;37207;53.060;18.726;2023-07-09T01:45:38;4.10;;;3.70;;
51146;SDS011;37207;53.060;18.726;2023-07-09T01:48:05;5.20;;;3.50;;
51146;SDS011;37207;53.060;18.726;2023-07-09T01:50:32;3.10;;;2.90;;
51146;SDS011;37207;53.060;18.726;2023-07-09T01:52:59;3.90;;;3.20;;
51146;SDS011;37207;53.060;18.726;2023-07-09T01:55:26;4.60;;;3.30;;
51146;SDS011;37207;53.060;18.726;2023-07-09T01:57:54;3.60;;;2.70;;
51146;SDS011;37207;53.060;18.726;2023-07-09T02:00:21;4.70;;;2.90;;
51146;SDS011;37207;53.060;18.726;2023-07-09T02:02:48;7.50;;;3.30;;
51146;SDS011;37207;53.060;18.726;2023-07-09T02:05:16;4.40;;;3.10;;
51146;SDS011;37207;53.060;18.726;2023-07-09T02:07:45;4.80;;;3.00;;
51146;SDS011;37207;53.060;18.726;2023-07-09T02:10:13;3.00;;;2.50;;
51146;SDS011;37207;53.060;18.726;2023-07-09T02:12:41;3.20;;;2.80;;
51146;SDS011;37207;53.060;18.726;2023-07-09T02:15:08;6.20;;;2.40;;
51146;SDS011;37207;53.060;18.726;2023-07-09T02:17:35;10.30;;;2.70;;
51146;SDS011;37207;53.060;18.726;2023-07-09T02:20:02;3.40;;;2.50;;
51146;SDS011;37207;53.060;18.726;2023-07-09T02:22:31;4.30;;;2.60;;
51146;SDS011;37207;53.060;18.726;2023-07-09T02:24:58;49.70;;;5.00;;
51146;SDS011;37207;53.060;18.726;2023-07-09T02:27:25;4.90;;;2.50;;
51146;SDS011;37207;53.060;18.726;2023-07-09T02:29:51;6.80;;;2.80;;
51146;SDS011;37207;53.060;18.726;2023-07-09T02:32:19;3.10;;;2.50;;
51146;SDS011;37207;53.060;18.726;2023-07-09T02:34:48;5.30;;;2.30;;
51146;SDS011;37207;53.060;18.726;2023-07-09T02:37:15;3.50;;;2.50;;
51146;SDS011;37207;53.060;18.726;2023-07-09T02:39:45;8.10;;;3.10;;
51146;SDS011;37207;53.060;18.726;2023-07-09T02:42:13;3.30;;;2.60;;
51146;SDS011;37207;53.060;18.726;2023-07-09T02:44:41;11.90;;;4.20;;
51146;SDS011;37207;53.060;18.726;2023-07-09T02:47:08;4.60;;;2.60;;
51146;SDS011;37207;53.060;18.726;2023-07-09T02:49:36;3.50;;;2.50;;
51146;SDS011;37207;53.060;18.726;2023-07-09T02:52:03;9.50;;;3.00;;
51146;SDS011;37207;53.060;18.726;2023-07-09T02:54:30;3.10;;;2.80;;
51146;SDS011;37207;53.060;18.726;2023-07-09T02:56:57;3.20;;;2.90;;
51146;SDS011;37207;53.060;18.726;2023-07-09T02:59:24;9.20;;;2.50;;
51146;SDS011;37207;53.060;18.726;2023-07-09T03:01:53;11.40;;;3.20;;
51146;SDS011;37207;53.060;18.726;2023-07-09T03:04:19;71.00;;;4.80;;
51146;SDS011;37207;53.060;18.726;2023-07-09T03:06:49;40.00;;;4.40;;
51146;SDS011;37207;53.060;18.726;2023-07-09T03:09:15;20.10;;;3.60;;
51146;SDS011;37207;53.060;18.726;2023-07-09T03:11:42;5.00;;;2.90;;
51146;SDS011;37207;53.060;18.726;2023-07-09T03:14:08;25.00;;;4.00;;
51146;SDS011;37207;53.060;18.726;2023-07-09T03:16:35;5.40;;;3.80;;
51146;SDS011;37207;53.060;18.726;2023-07-09T03:19:02;11.80;;;5.00;;
51146;SDS011;37207;53.060;18.726;2023-07-09T03:21:31;6.10;;;4.00;;
51146;SDS011;37207;53.060;18.726;2023-07-09T03:23:58;5.30;;;4.80;;
51146;SDS011;37207;53.060;18.726;2023-07-09T03:26:25;6.30;;;4.70;;
51146;SDS011;37207;53.060;18.726;2023-07-09T03:28:52;5.20;;;4.10;;
51146;SDS011;37207;53.060;18.726;2023-07-09T03:31:20;5.50;;;3.80;;
51146;SDS011;37207;53.060;18.726;2023-07-09T03:33:47;5.10;;;4.00;;
51146;SDS011;37207;53.060;18.726;2023-07-09T03:36:16;4.60;;;4.20;;
51146;SDS011;37207;53.060;18.726;2023-07-09T03:38:43;6.20;;;5.60;;
51146;SDS011;37207;53.060;18.726;2023-07-09T03:41:09;8.20;;;4.80;;
51146;SDS011;37207;53.060;18.726;2023-07-09T03:43:36;4.50;;;4.10;;
51146;SDS011;37207;53.060;18.726;2023-07-09T03:46:03;3.80;;;3.50;;
51146;SDS011;37207;53.060;18.726;2023-07-09T03:48:29;3.40;;;3.10;;
51146;SDS011;37207;53.060;18.726;2023-07-09T03:50:56;2.90;;;2.50;;
51146;SDS011;37207;53.060;18.726;2023-07-09T03:53:23;4.80;;;3.30;;
51146;SDS011;37207;53.060;18.726;2023-07-09T03:55:53;3.80;;;3.50;;
51146;SDS011;37207;53.060;18.726;2023-07-09T03:58:21;4.20;;;3.40;;
51146;SDS011;37207;53.060;18.726;2023-07-09T04:00:48;3.80;;;3.10;;
51146;SDS011;37207;53.060;18.726;2023-07-09T04:03:15;3.60;;;3.30;;
51146;SDS011;37207;53.060;18.726;2023-07-09T04:05:41;14.40;;;3.10;;
51146;SDS011;37207;53.060;18.726;2023-07-09T04:08:08;3.90;;;3.00;;
51146;SDS011;37207;53.060;18.726;2023-07-09T04:10:35;3.30;;;3.00;;
51146;SDS011;37207;53.060;18.726;2023-07-09T04:13:01;4.20;;;3.60;;
51146;SDS011;37207;53.060;18.726;2023-07-09T04:15:28;4.50;;;3.50;;
51146;SDS011;37207;53.060;18.726;2023-07-09T04:17:55;4.30;;;3.40;;
51146;SDS011;37207;53.060;18.726;2023-07-09T04:20:22;5.50;;;3.40;;
51146;SDS011;37207;53.060;18.726;2023-07-09T04:22:49;4.70;;;3.20;;
51146;SDS011;37207;53.060;18.726;2023-07-09T04:25:15;5.00;;;3.00;;
51146;SDS011;37207;53.060;18.726;2023-07-09T04:27:43;17.50;;;3.50;;
51146;SDS011;37207;53.060;18.726;2023-07-09T04:30:13;3.70;;;2.50;;
51146;SDS011;37207;53.060;18.726;2023-07-09T04:32:42;4.30;;;2.90;;
51146;SDS011;37207;53.060;18.726;2023-07-09T04:37:38;4.30;;;2.50;;
51146;SDS011;37207;53.060;18.726;2023-07-09T04:40:06;3.50;;;2.10;;
51146;SDS011;37207;53.060;18.726;2023-07-09T04:42:36;8.60;;;2.70;;
51146;SDS011;37207;53.060;18.726;2023-07-09T04:45:05;4.60;;;2.40;;
51146;SDS011;37207;53.060;18.726;2023-07-09T04:47:33;7.40;;;2.60;;
51146;SDS011;37207;53.060;18.726;2023-07-09T04:49:59;3.70;;;2.60;;
51146;SDS011;37207;53.060;18.726;2023-07-09T04:52:26;3.90;;;2.50;;
51146;SDS011;37207;53.060;18.726;2023-07-09T04:54:52;2.50;;;2.20;;
51146;SDS011;37207;53.060;18.726;2023-07-09T04:57:19;3.10;;;2.40;;
51146;SDS011;37207;53.060;18.726;2023-07-09T04:59:46;3.50;;;2.20;;
51146;SDS011;37207;53.060;18.726;2023-07-09T05:02:12;2.80;;;2.60;;
51146;SDS011;37207;53.060;18.726;2023-07-09T05:04:39;2.90;;;2.40;;
51146;SDS011;37207;53.060;18.726;2023-07-09T05:07:05;2.50;;;2.30;;
51146;SDS011;37207;53.060;18.726;2023-07-09T05:09:33;10.40;;;2.60;;
51146;SDS011;37207;53.060;18.726;2023-07-09T05:12:00;2.90;;;1.80;;
51146;SDS011;37207;53.060;18.726;2023-07-09T05:14:26;2.40;;;1.60;;
51146;SDS011;37207;53.060;18.726;2023-07-09T05:16:54;3.60;;;1.80;;
51146;SDS011;37207;53.060;18.726;2023-07-09T05:19:20;1.90;;;1.60;;
51146;SDS011;37207;53.060;18.726;2023-07-09T05:21:47;3.20;;;1.90;;
51146;SDS011;37207;53.060;18.726;2023-07-09T05:24:13;4.50;;;1.70;;
51146;SDS011;37207;53.060;18.726;2023-07-09T05:26:40;4.20;;;1.70;;
51146;SDS011;37207;53.060;18.726;2023-07-09T05:29:07;2.00;;;1.60;;
51146;SDS011;37207;53.060;18.726;2023-07-09T05:31:33;4.10;;;1.30;;
51146;SDS011;37207;53.060;18.726;2023-07-09T05:34:00;2.60;;;1.50;;
51146;SDS011;37207;53.060;18.726;2023-07-09T05:36:27;2.50;;;1.30;;
51146;SDS011;37207;53.060;18.726;2023-07-09T05:38:54;2.50;;;1.20;;
51146;SDS011;37207;53.060;18.726;2023-07-09T05:41:22;1.50;;;1.40;;
51146;SDS011;37207;53.060;18.726;2023-07-09T05:43:50;2.10;;;1.30;;
51146;SDS011;37207;53.060;18.726;2023-07-09T05:46:18;1.60;;;1.50;;
51146;SDS011;37207;53.060;18.726;2023-07-09T05:48:45;3.60;;;1.60;;
51146;SDS011;37207;53.060;18.726;2023-07-09T05:51:12;5.20;;;1.80;;
51146;SDS011;37207;53.060;18.726;2023-07-09T05:53:39;3.30;;;1.40;;
51146;SDS011;37207;53.060;18.726;2023-07-09T05:56:06;1.80;;;1.10;;
51146;SDS011;37207;53.060;18.726;2023-07-09T05:58:33;1.70;;;1.30;;
51146;SDS011;37207;53.060;18.726;2023-07-09T06:01:00;39.60;;;2.70;;
51146;SDS011;37207;53.060;18.726;2023-07-09T06:03:26;2.20;;;1.50;;
51146;SDS011;37207;53.060;18.726;2023-07-09T06:05:53;2.40;;;1.40;;
51146;SDS011;37207;53.060;18.726;2023-07-09T06:08:20;3.70;;;1.60;;
51146;SDS011;37207;53.060;18.726;2023-07-09T06:10:51;4.30;;;1.70;;
51146;SDS011;37207;53.060;18.726;2023-07-09T06:13:23;4.20;;;1.90;;
51146;SDS011;37207;53.060;18.726;2023-07-09T06:15:51;1.50;;;1.10;;
51146;SDS011;37207;53.060;18.726;2023-07-09T06:18:20;3.90;;;1.40;;
51146;SDS011;37207;53.060;18.726;2023-07-09T06:20:49;2.30;;;1.20;;
51146;SDS011;37207;53.060;18.726;2023-07-09T06:23:18;4.50;;;1.60;;
51146;SDS011;37207;53.060;18.726;2023-07-09T06:25:45;2.10;;;1.20;;
51146;SDS011;37207;53.060;18.726;2023-07-09T06:28:17;5.20;;;1.40;;
51146;SDS011;37207;53.060;18.726;2023-07-09T06:30:45;3.90;;;1.30;;
51146;SDS011;37207;53.060;18.726;2023-07-09T06:33:13;2.00;;;1.40;;
51146;SDS011;37207;53.060;18.726;2023-07-09T06:35:47;10.80;;;1.50;;
51146;SDS011;37207;53.060;18.726;2023-07-09T06:38:16;2.60;;;1.30;;
51146;SDS011;37207;53.060;18.726;2023-07-09T06:40:42;1.60;;;1.10;;
51146;SDS011;37207;53.060;18.726;2023-07-09T06:43:09;1.80;;;1.20;;
51146;SDS011;37207;53.060;18.726;2023-07-09T06:48:04;1.80;;;1.10;;
51146;SDS011;37207;53.060;18.726;2023-07-09T06:50:34;7.10;;;1.50;;
51146;SDS011;37207;53.060;18.726;2023-07-09T06:53:01;1.80;;;1.10;;
51146;SDS011;37207;53.060;18.726;2023-07-09T06:55:28;1.70;;;1.50;;
51146;SDS011;37207;53.060;18.726;2023-07-09T06:57:54;2.60;;;1.30;;
51146;SDS011;37207;53.060;18.726;2023-07-09T07:00:21;1.50;;;1.30;;
51146;SDS011;37207;53.060;18.726;2023-07-09T07:02:48;6.20;;;1.30;;
51146;SDS011;37207;53.060;18.726;2023-07-09T07:05:14;3.90;;;1.10;;
51146;SDS011;37207;53.060;18.726;2023-07-09T07:07:41;9.00;;;1.40;;
51146;SDS011;37207;53.060;18.726;2023-07-09T07:10:07;3.20;;;1.30;;
51146;SDS011;37207;53.060;18.726;2023-07-09T07:12:42;6.80;;;1.30;;
51146;SDS011;37207;53.060;18.726;2023-07-09T07:15:11;3.80;;;1.10;;
51146;SDS011;37207;53.060;18.726;2023-07-09T07:17:39;1.90;;;1.10;;
51146;SDS011;37207;53.060;18.726;2023-07-09T07:20:06;1.40;;;0.90;;
51146;SDS011;37207;53.060;18.726;2023-07-09T07:22:34;4.10;;;1.30;;
51146;SDS011;37207;53.060;18.726;2023-07-09T07:25:01;12.10;;;1.50;;
51146;SDS011;37207;53.060;18.726;2023-07-09T07:27:29;3.30;;;1.20;;
51146;SDS011;37207;53.060;18.726;2023-07-09T07:29:55;1.80;;;1.00;;
51146;SDS011;37207;53.060;18.726;2023-07-09T07:32:22;1.60;;;1.00;;
51146;SDS011;37207;53.060;18.726;2023-07-09T07:34:48;1.80;;;0.90;;
51146;SDS011;37207;53.060;18.726;2023-07-09T07:37:17;3.70;;;1.40;;
51146;SDS011;37207;53.060;18.726;2023-07-09T07:39:47;2.80;;;1.20;;
51146;SDS011;37207;53.060;18.726;2023-07-09T07:42:14;2.40;;;1.20;;
51146;SDS011;37207;53.060;18.726;2023-07-09T07:44:41;1.70;;;1.00;;
51146;SDS011;37207;53.060;18.726;2023-07-09T07:47:07;0.80;;;0.70;;
51146;SDS011;37207;53.060;18.726;2023-07-09T07:49:34;2.50;;;1.10;;
51146;SDS011;37207;53.060;18.726;2023-07-09T07:52:00;1.00;;;0.90;;
51146;SDS011;37207;53.060;18.726;2023-07-09T07:54:29;3.60;;;1.10;;
51146;SDS011;37207;53.060;18.726;2023-07-09T07:56:58;3.10;;;1.20;;
51146;SDS011;37207;53.060;18.726;2023-07-09T07:59:25;1.30;;;1.00;;
51146;SDS011;37207;53.060;18.726;2023-07-09T08:01:51;1.10;;;1.00;;
51146;SDS011;37207;53.060;18.726;2023-07-09T08:04:18;2.20;;;1.00;;
51146;SDS011;37207;53.060;18.726;2023-07-09T08:06:45;3.70;;;1.10;;
51146;SDS011;37207;53.060;18.726;2023-07-09T08:09:12;2.70;;;0.70;;
51146;SDS011;37207;53.060;18.726;2023-07-09T08:11:39;1.90;;;0.90;;
51146;SDS011;37207;53.060;18.726;2023-07-09T08:14:06;2.40;;;0.70;;
51146;SDS011;37207;53.060;18.726;2023-07-09T08:16:33;3.30;;;0.80;;
51146;SDS011;37207;53.060;18.726;2023-07-09T08:18:59;4.10;;;0.90;;
51146;SDS011;37207;53.060;18.726;2023-07-09T08:21:26;1.00;;;0.70;;
51146;SDS011;37207;53.060;18.726;2023-07-09T08:23:52;4.20;;;0.90;;
51146;SDS011;37207;53.060;18.726;2023-07-09T08:26:19;0.90;;;0.70;;
51146;SDS011;37207;53.060;18.726;2023-07-09T08:28:45;1.30;;;0.80;;
51146;SDS011;37207;53.060;18.726;2023-07-09T08:31:12;1.50;;;0.80;;
51146;SDS011;37207;53.060;18.726;2023-07-09T08:33:39;1.10;;;0.70;;
51146;SDS011;37207;53.060;18.726;2023-07-09T08:36:06;1.00;;;0.90;;
51146;SDS011;37207;53.060;18.726;2023-07-09T08:38:33;0.80;;;0.80;;
51146;SDS011;37207;53.060;18.726;2023-07-09T08:43:39;16.30;;;1.10;;
51146;SDS011;37207;53.060;18.726;2023-07-09T08:47:06;2.60;;;0.80;;
51146;SDS011;37207;53.060;18.726;2023-07-09T08:49:24;1.90;;;0.60;;
51146;SDS011;37207;53.060;18.726;2023-07-09T08:51:59;0.90;;;0.70;;
51146;SDS011;37207;53.060;18.726;2023-07-09T08:54:31;2.00;;;0.90;;
51146;SDS011;37207;53.060;18.726;2023-07-09T08:57:04;0.90;;;0.60;;
51146;SDS011;37207;53.060;18.726;2023-07-09T08:59:40;0.70;;;0.60;;
51146;SDS011;37207;53.060;18.726;2023-07-09T09:02:14;1.10;;;0.70;;
51146;SDS011;37207;53.060;18.726;2023-07-09T09:04:52;5.70;;;0.70;;
51146;SDS011;37207;53.060;18.726;2023-07-09T09:09:54;5.10;;;0.70;;
51146;SDS011;37207;53.060;18.726;2023-07-09T09:12:46;1.40;;;0.80;;
51146;SDS011;37207;53.060;18.726;2023-07-09T09:15:30;1.10;;;0.70;;
51146;SDS011;37207;53.060;18.726;2023-07-09T09:18:01;1.50;;;0.80;;
51146;SDS011;37207;53.060;18.726;2023-07-09T09:20:44;13.80;;;1.20;;
51146;SDS011;37207;53.060;18.726;2023-07-09T09:23:15;1.10;;;0.70;;
51146;SDS011;37207;53.060;18.726;2023-07-09T09:25:44;0.90;;;0.80;;
51146;SDS011;37207;53.060;18.726;2023-07-09T09:28:16;3.60;;;0.80;;
51146;SDS011;37207;53.060;18.726;2023-07-09T09:30:42;1.50;;;0.60;;
51146;SDS011;37207;53.060;18.726;2023-07-09T09:33:10;0.60;;;0.60;;
51146;SDS011;37207;53.060;18.726;2023-07-09T09:35:41;0.50;;;0.50;;
51146;SDS011;37207;53.060;18.726;2023-07-09T09:38:12;0.50;;;0.50;;
51146;SDS011;37207;53.060;18.726;2023-07-09T09:40:42;2.00;;;0.60;;
51146;SDS011;37207;53.060;18.726;2023-07-09T09:43:18;2.90;;;0.80;;
51146;SDS011;37207;53.060;18.726;2023-07-09T09:45:48;0.50;;;0.50;;
51146;SDS011;37207;53.060;18.726;2023-07-09T09:48:20;2.10;;;0.60;;
51146;SDS011;37207;53.060;18.726;2023-07-09T09:50:54;0.70;;;0.60;;
51146;SDS011;37207;53.060;18.726;2023-07-09T09:53:27;0.50;;;0.40;;
51146;SDS011;37207;53.060;18.726;2023-07-09T09:55:56;1.00;;;0.50;;
51146;SDS011;37207;53.060;18.726;2023-07-09T09:58:29;0.70;;;0.60;;
51146;SDS011;37207;53.060;18.726;2023-07-09T10:00:57;1.90;;;0.50;;
51146;SDS011;37207;53.060;18.726;2023-07-09T10:03:33;1.20;;;0.60;;
51146;SDS011;37207;53.060;18.726;2023-07-09T10:06:03;0.60;;;0.50;;
51146;SDS011;37207;53.060;18.726;2023-07-09T10:09:02;0.60;;;0.60;;
51146;SDS011;37207;53.060;18.726;2023-07-09T10:11:42;0.60;;;0.50;;
51146;SDS011;37207;53.060;18.726;2023-07-09T10:14:18;0.60;;;0.40;;
51146;SDS011;37207;53.060;18.726;2023-07-09T10:16:52;0.80;;;0.60;;
51146;SDS011;37207;53.060;18.726;2023-07-09T10:19:25;0.50;;;0.40;;
51146;SDS011;37207;53.060;18.726;2023-07-09T10:31:10;2.90;;;0.60;;
51146;SDS011;37207;53.060;18.726;2023-07-09T10:38:59;1.10;;;0.70;;
51146;SDS011;37207;53.060;18.726;2023-07-09T10:41:33;0.70;;;0.60;;
51146;SDS011;37207;53.060;18.726;2023-07-09T10:46:37;1.70;;;0.80;;
51146;SDS011;37207;53.060;18.726;2023-07-09T10:49:09;0.70;;;0.70;;
51146;SDS011;37207;53.060;18.726;2023-07-09T10:51:49;0.70;;;0.60;;
51146;SDS011;37207;53.060;18.726;2023-07-09T10:57:03;0.50;;;0.50;;
51146;SDS011;37207;53.060;18.726;2023-07-09T10:59:50;3.70;;;0.90;;
51146;SDS011;37207;53.060;18.726;2023-07-09T11:02:24;0.50;;;0.50;;
51146;SDS011;37207;53.060;18.726;2023-07-09T11:04:53;2.10;;;0.50;;
51146;SDS011;37207;53.060;18.726;2023-07-09T11:07:23;2.50;;;0.50;;
51146;SDS011;37207;53.060;18.726;2023-07-09T11:09:56;1.30;;;0.50;;
51146;SDS011;37207;53.060;18.726;2023-07-09T11:15:09;0.70;;;0.50;;
51146;SDS011;37207;53.060;18.726;2023-07-09T11:17:44;1.10;;;0.70;;
51146;SDS011;37207;53.060;18.726;2023-07-09T11:20:58;2.00;;;0.50;;
51146;SDS011;37207;53.060;18.726;2023-07-09T11:23:19;0.60;;;0.60;;
51146;SDS011;37207;53.060;18.726;2023-07-09T11:26:08;0.70;;;0.60;;
51146;SDS011;37207;53.060;18.726;2023-07-09T11:31:37;1.00;;;0.60;;
51146;SDS011;37207;53.060;18.726;2023-07-09T11:34:09;0.60;;;0.60;;
51146;SDS011;37207;53.060;18.726;2023-07-09T11:36:55;2.00;;;0.60;;
51146;SDS011;37207;53.060;18.726;2023-07-09T11:39:28;1.20;;;0.70;;
51146;SDS011;37207;53.060;18.726;2023-07-09T11:42:27;0.50;;;0.50;;
51146;SDS011;37207;53.060;18.726;2023-07-09T11:44:58;0.80;;;0.70;;
51146;SDS011;37207;53.060;18.726;2023-07-09T11:47:42;0.80;;;0.50;;
51146;SDS011;37207;53.060;18.726;2023-07-09T11:50:16;0.60;;;0.60;;
51146;SDS011;37207;53.060;18.726;2023-07-09T11:52:54;0.70;;;0.60;;
51146;SDS011;37207;53.060;18.726;2023-07-09T11:55:26;0.80;;;0.70;;
51146;SDS011;37207;53.060;18.726;2023-07-09T11:58:13;0.70;;;0.50;;
51146;SDS011;37207;53.060;18.726;2023-07-09T12:00:43;0.70;;;0.60;;
51146;SDS011;37207;53.060;18.726;2023-07-09T12:03:18;0.80;;;0.60;;
51146;SDS011;37207;53.060;18.726;2023-07-09T12:08:27;2.20;;;0.60;;
51146;SDS011;37207;53.060;18.726;2023-07-09T12:10:59;0.70;;;0.60;;
51146;SDS011;37207;53.060;18.726;2023-07-09T12:13:36;2.00;;;0.70;;
51146;SDS011;37207;53.060;18.726;2023-07-09T12:16:19;6.10;;;0.90;;
51146;SDS011;37207;53.060;18.726;2023-07-09T12:18:50;22.30;;;1.80;;
51146;SDS011;37207;53.060;18.726;2023-07-09T12:21:17;1.40;;;0.60;;
51146;SDS011;37207;53.060;18.726;2023-07-09T12:23:45;2.20;;;0.60;;
51146;SDS011;37207;53.060;18.726;2023-07-09T12:26:13;0.50;;;0.50;;
51146;SDS011;37207;53.060;18.726;2023-07-09T12:28:41;2.60;;;0.70;;
51146;SDS011;37207;53.060;18.726;2023-07-09T12:31:14;0.70;;;0.50;;
51146;SDS011;37207;53.060;18.726;2023-07-09T12:33:49;0.80;;;0.60;;
51146;SDS011;37207;53.060;18.726;2023-07-09T12:36:18;2.80;;;0.60;;
51146;SDS011;37207;53.060;18.726;2023-07-09T12:38:50;0.80;;;0.50;;
51146;SDS011;37207;53.060;18.726;2023-07-09T12:43:48;0.60;;;0.50;;
51146;SDS011;37207;53.060;18.726;2023-07-09T12:46:17;0.70;;;0.70;;
51146;SDS011;37207;53.060;18.726;2023-07-09T12:48:45;0.70;;;0.60;;
51146;SDS011;37207;53.060;18.726;2023-07-09T12:51:13;6.90;;;0.80;;
51146;SDS011;37207;53.060;18.726;2023-07-09T12:53:44;0.50;;;0.50;;
51146;SDS011;37207;53.060;18.726;2023-07-09T12:56:12;1.50;;;0.80;;
51146;SDS011;37207;53.060;18.726;2023-07-09T12:58:42;6.60;;;0.80;;
51146;SDS011;37207;53.060;18.726;2023-07-09T13:01:14;6.70;;;1.00;;
51146;SDS011;37207;53.060;18.726;2023-07-09T13:03:51;1.20;;;0.60;;
51146;SDS011;37207;53.060;18.726;2023-07-09T13:06:30;0.70;;;0.70;;
51146;SDS011;37207;53.060;18.726;2023-07-09T13:09:01;0.60;;;0.60;;
51146;SDS011;37207;53.060;18.726;2023-07-09T13:11:33;1.30;;;0.70;;
51146;SDS011;37207;53.060;18.726;2023-07-09T13:14:02;1.90;;;0.60;;
51146;SDS011;37207;53.060;18.726;2023-07-09T13:16:37;11.90;;;0.90;;
51146;SDS011;37207;53.060;18.726;2023-07-09T13:19:05;0.90;;;0.60;;
51146;SDS011;37207;53.060;18.726;2023-07-09T13:21:32;1.60;;;0.70;;
51146;SDS011;37207;53.060;18.726;2023-07-09T13:23:59;0.70;;;0.60;;
51146;SDS011;37207;53.060;18.726;2023-07-09T13:26:25;2.00;;;0.70;;
51146;SDS011;37207;53.060;18.726;2023-07-09T13:28:52;4.80;;;1.00;;
51146;SDS011;37207;53.060;18.726;2023-07-09T13:31:19;4.10;;;0.80;;
51146;SDS011;37207;53.060;18.726;2023-07-09T13:33:54;3.30;;;1.00;;
51146;SDS011;37207;53.060;18.726;2023-07-09T13:36:24;1.00;;;0.70;;
51146;SDS011;37207;53.060;18.726;2023-07-09T13:38:51;2.80;;;0.70;;
51146;SDS011;37207;53.060;18.726;2023-07-09T13:41:18;1.90;;;0.80;;
51146;SDS011;37207;53.060;18.726;2023-07-09T13:43:48;0.90;;;0.70;;
51146;SDS011;37207;53.060;18.726;2023-07-09T13:48:43;2.60;;;0.80;;
51146;SDS011;37207;53.060;18.726;2023-07-09T13:51:18;0.80;;;0.80;;
51146;SDS011;37207;53.060;18.726;2023-07-09T13:53:50;27.70;;;2.60;;
51146;SDS011;37207;53.060;18.726;2023-07-09T13:56:19;12.00;;;1.10;;
51146;SDS011;37207;53.060;18.726;2023-07-09T13:58:46;1.20;;;1.10;;
51146;SDS011;37207;53.060;18.726;2023-07-09T14:01:14;5.10;;;0.80;;
51146;SDS011;37207;53.060;18.726;2023-07-09T14:03:45;0.90;;;0.80;;
51146;SDS011;37207;53.060;18.726;2023-07-09T14:06:12;9.70;;;1.00;;
51146;SDS011;37207;53.060;18.726;2023-07-09T14:08:39;1.00;;;0.90;;
51146;SDS011;37207;53.060;18.726;2023-07-09T14:11:10;2.20;;;1.20;;
51146;SDS011;37207;53.060;18.726;2023-07-09T14:13:38;1.30;;;1.00;;
51146;SDS011;37207;53.060;18.726;2023-07-09T14:16:06;1.10;;;1.00;;
51146;SDS011;37207;53.060;18.726;2023-07-09T14:18:37;3.50;;;1.20;;
51146;SDS011;37207;53.060;18.726;2023-07-09T14:21:12;2.70;;;0.80;;
51146;SDS011;37207;53.060;18.726;2023-07-09T14:23:40;1.30;;;0.90;;
51146;SDS011;37207;53.060;18.726;2023-07-09T14:26:08;1.20;;;0.90;;
51146;SDS011;37207;53.060;18.726;2023-07-09T14:28:36;1.80;;;1.00;;
51146;SDS011;37207;53.060;18.726;2023-07-09T14:31:09;33.20;;;2.10;;
51146;SDS011;37207;53.060;18.726;2023-07-09T14:33:50;13.40;;;1.60;;
51146;SDS011;37207;53.060;18.726;2023-07-09T14:36:17;1.80;;;1.00;;
51146;SDS011;37207;53.060;18.726;2023-07-09T14:38:44;1.10;;;1.00;;
51146;SDS011;37207;53.060;18.726;2023-07-09T14:41:22;5.20;;;0.90;;
51146;SDS011;37207;53.060;18.726;2023-07-09T14:43:53;4.10;;;1.10;;
51146;SDS011;37207;53.060;18.726;2023-07-09T14:46:23;1.10;;;0.90;;
51146;SDS011;37207;53.060;18.726;2023-07-09T14:48:50;1.40;;;1.00;;
51146;SDS011;37207;53.060;18.726;2023-07-09T14:51:16;2.80;;;0.80;;
51146;SDS011;37207;53.060;18.726;2023-07-09T14:53:44;3.00;;;1.10;;
51146;SDS011;37207;53.060;18.726;2023-07-09T14:56:12;8.80;;;1.10;;
51146;SDS011;37207;53.060;18.726;2023-07-09T14:58:39;1.20;;;1.10;;
51146;SDS011;37207;53.060;18.726;2023-07-09T15:01:10;2.40;;;0.80;;
51146;SDS011;37207;53.060;18.726;2023-07-09T15:03:39;2.70;;;0.80;;
51146;SDS011;37207;53.060;18.726;2023-07-09T15:06:06;1.30;;;0.70;;
51146;SDS011;37207;53.060;18.726;2023-07-09T15:08:33;0.80;;;0.80;;
51146;SDS011;37207;53.060;18.726;2023-07-09T15:11:00;5.00;;;1.00;;
51146;SDS011;37207;53.060;18.726;2023-07-09T15:13:29;0.90;;;0.70;;
51146;SDS011;37207;53.060;18.726;2023-07-09T15:15:58;1.70;;;1.00;;
51146;SDS011;37207;53.060;18.726;2023-07-09T15:18:33;2.60;;;1.10;;
51146;SDS011;37207;53.060;18.726;2023-07-09T15:21:01;1.30;;;1.20;;
51146;SDS011;37207;53.060;18.726;2023-07-09T15:23:29;10.90;;;1.70;;
51146;SDS011;37207;53.060;18.726;2023-07-09T15:26:12;1.90;;;1.10;;
51146;SDS011;37207;53.060;18.726;2023-07-09T15:28:42;3.10;;;0.80;;
51146;SDS011;37207;53.060;18.726;2023-07-09T15:31:12;4.10;;;1.40;;
51146;SDS011;37207;53.060;18.726;2023-07-09T15:33:38;4.50;;;1.00;;